createdAt,value
2019-02-22T00:02:21.115Z,13.60
2019-02-22T00:04:51.379Z,13.66
2019-02-22T00:07:20.942Z,13.65
2019-02-22T00:09:50.200Z,13.68
2019-02-22T00:12:19.479Z,13.70
2019-02-22T00:14:49.047Z,13.71
2019-02-22T00:17:18.328Z,13.71
2019-02-22T00:19:48.676Z,13.70
2019-02-22T00:22:18.236Z,13.72
2019-02-22T00:24:47.506Z,13.71
2019-02-22T00:27:16.727Z,13.69
2019-02-22T00:29:46.233Z,13.72
2019-02-22T00:32:15.533Z,13.73
2019-02-22T00:34:44.805Z,13.76
2019-02-22T00:37:14.266Z,13.78
2019-02-22T00:39:43.534Z,13.77
2019-02-22T00:42:12.756Z,13.71
2019-02-22T00:44:42.324Z,13.73
2019-02-22T00:47:11.621Z,13.75
2019-02-22T00:49:40.912Z,13.72
2019-02-22T00:52:10.428Z,13.74
2019-02-22T00:54:39.694Z,13.73
2019-02-22T00:57:08.928Z,13.71
2019-02-22T00:59:38.473Z,13.66
2019-02-22T01:02:07.728Z,13.66
2019-02-22T01:04:36.972Z,13.61
2019-02-22T01:07:06.717Z,13.56
2019-02-22T01:09:35.999Z,13.50
2019-02-22T01:12:07.788Z,13.44
2019-02-22T01:14:37.307Z,13.39
2019-02-22T01:17:06.777Z,13.39
2019-02-22T01:19:36.015Z,13.41
2019-02-22T01:22:09.891Z,13.39
2019-02-22T01:24:39.154Z,13.42
2019-02-22T01:27:08.556Z,13.46
2019-02-22T01:29:38.085Z,13.46
2019-02-22T01:32:07.429Z,13.36
2019-02-22T01:34:36.636Z,13.40
2019-02-22T01:37:06.182Z,13.39
2019-02-22T01:39:35.463Z,13.38
2019-02-22T01:42:05.478Z,13.37
2019-02-22T01:44:34.698Z,13.36
2019-02-22T01:47:04.009Z,13.36
2019-02-22T01:49:33.518Z,13.35
2019-02-22T01:52:04.454Z,13.40
2019-02-22T01:54:33.689Z,13.43
2019-02-22T01:57:02.994Z,13.48
2019-02-22T01:59:32.221Z,13.49
2019-02-22T02:02:03.046Z,13.51
2019-02-22T02:04:32.220Z,13.56
2019-02-22T02:07:01.878Z,13.57
2019-02-22T02:09:32.312Z,13.62
2019-02-22T02:12:07.366Z,13.64
2019-02-22T02:14:36.737Z,13.66
2019-02-22T02:17:06.005Z,13.63
2019-02-22T02:19:35.239Z,13.64
2019-02-22T02:22:06.322Z,13.66
2019-02-22T02:24:35.572Z,13.64
2019-02-22T02:27:04.813Z,13.67
2019-02-22T02:29:34.448Z,13.63
2019-02-22T02:32:06.069Z,13.57
2019-02-22T02:34:35.585Z,13.60
2019-02-22T02:37:05.137Z,13.67
2019-02-22T02:39:34.380Z,13.68
2019-02-22T02:42:04.461Z,13.69
2019-02-22T02:44:33.743Z,13.66
2019-02-22T02:47:02.976Z,13.67
2019-02-22T02:49:32.491Z,13.64
2019-02-22T02:52:02.960Z,13.69
2019-02-22T02:54:32.173Z,13.67
2019-02-22T02:57:01.433Z,13.68
2019-02-22T02:59:30.750Z,13.67
2019-02-22T03:02:02.231Z,13.67
2019-02-22T03:04:31.474Z,13.61
2019-02-22T03:07:14.741Z,13.58
2019-02-22T03:09:44.266Z,13.60
2019-02-22T03:12:13.715Z,13.62
2019-02-22T03:14:42.973Z,13.62
2019-02-22T03:17:12.485Z,13.50
2019-02-22T03:19:41.721Z,13.53
2019-02-22T03:22:11.004Z,13.58
2019-02-22T03:24:40.521Z,13.60
2019-02-22T03:27:10.020Z,13.57
2019-02-22T03:29:39.292Z,13.56
2019-02-22T03:32:08.814Z,13.57
2019-02-22T03:34:38.046Z,13.56
2019-02-22T03:37:07.309Z,13.53
2019-02-22T03:39:36.835Z,13.52
2019-02-22T03:42:06.095Z,13.56
2019-02-22T03:44:35.380Z,13.51
2019-02-22T03:47:04.956Z,13.57
2019-02-22T03:49:34.199Z,13.52
2019-02-22T03:52:23.161Z,13.55
2019-02-22T03:54:52.664Z,13.53
2019-02-22T03:57:21.912Z,13.55
2019-02-22T03:59:51.424Z,13.56
2019-02-22T04:02:20.962Z,13.56
2019-02-22T04:04:50.216Z,13.59
2019-02-22T04:07:19.515Z,13.58
2019-02-22T04:09:49.006Z,13.56
2019-02-22T04:12:18.220Z,13.61
2019-02-22T04:14:48.317Z,13.59
2019-02-22T04:17:17.826Z,13.59
2019-02-22T04:19:47.067Z,13.59
2019-02-22T04:22:16.344Z,13.58
2019-02-22T04:24:45.881Z,13.57
2019-02-22T04:27:15.109Z,13.60
2019-02-22T04:29:44.442Z,13.58
2019-02-22T04:32:14.013Z,13.56
2019-02-22T04:34:43.282Z,13.59
2019-02-22T04:37:12.575Z,13.54
2019-02-22T04:39:42.085Z,13.54
2019-02-22T04:42:11.319Z,13.51
2019-02-22T04:44:40.597Z,13.57
2019-02-22T04:47:11.142Z,13.57
2019-02-22T04:49:40.370Z,13.50
2019-02-22T04:52:09.635Z,13.57
2019-02-22T04:54:39.191Z,13.53
2019-02-22T04:57:08.446Z,13.55
2019-02-22T04:59:37.717Z,13.53
2019-02-22T05:02:07.291Z,13.53
2019-02-22T05:04:36.575Z,13.59
2019-02-22T05:07:05.875Z,13.59
2019-02-22T05:09:35.369Z,13.57
2019-02-22T05:12:10.961Z,13.54
2019-02-22T05:14:38.123Z,13.54
2019-02-22T05:17:08.532Z,13.54
2019-02-22T05:19:37.775Z,13.55
2019-02-22T05:22:07.100Z,13.55
2019-02-22T05:24:36.596Z,13.50
2019-02-22T05:27:05.895Z,13.47
2019-02-22T05:29:35.158Z,13.48
2019-02-22T05:32:07.460Z,13.47
2019-02-22T05:34:36.698Z,13.51
2019-02-22T05:37:06.259Z,13.44
2019-02-22T05:39:35.477Z,13.49
2019-02-22T05:42:05.402Z,13.48
2019-02-22T05:44:34.675Z,13.47
2019-02-22T05:47:03.930Z,13.47
2019-02-22T05:49:33.427Z,13.48
2019-02-22T05:52:03.377Z,13.45
2019-02-22T05:54:32.567Z,13.43
2019-02-22T05:57:02.118Z,13.40
2019-02-22T05:59:31.385Z,13.38
2019-02-22T06:02:00.709Z,13.39
2019-02-22T06:04:30.266Z,13.39
2019-02-22T06:06:59.521Z,13.40
2019-02-22T06:09:28.751Z,13.34
2019-02-22T06:11:58.341Z,13.33
2019-02-22T06:14:27.605Z,13.30
2019-02-22T06:16:56.859Z,13.32
2019-02-22T06:19:27.250Z,13.32
2019-02-22T06:24:55.037Z,13.36
2019-02-22T06:27:24.716Z,13.38
2019-02-22T06:29:54.289Z,13.36
2019-02-22T06:32:23.955Z,13.34
2019-02-22T06:34:53.266Z,13.33
2019-02-22T06:37:22.606Z,13.33
2019-02-22T06:39:52.188Z,13.31
2019-02-22T06:42:21.482Z,13.30
2019-02-22T06:44:50.728Z,13.25
2019-02-22T06:47:22.665Z,13.26
2019-02-22T06:49:51.003Z,13.25
2019-02-22T06:52:21.990Z,13.29
2019-02-22T06:54:51.243Z,13.30
2019-02-22T06:57:20.546Z,13.30
2019-02-22T06:59:49.806Z,13.26
2019-02-22T07:02:19.150Z,13.28
2019-02-22T07:04:48.802Z,13.26
2019-02-22T07:07:18.043Z,13.26
2019-02-22T07:09:47.272Z,13.25
2019-02-22T07:12:24.830Z,13.25
2019-02-22T07:14:54.067Z,13.30
2019-02-22T07:17:23.369Z,13.31
2019-02-22T07:19:52.676Z,13.32
2019-02-22T07:22:22.802Z,13.34
2019-02-22T07:24:52.260Z,13.38
2019-02-22T07:27:21.571Z,13.41
2019-02-22T07:29:50.917Z,13.37
2019-02-22T07:32:20.429Z,13.43
2019-02-22T07:34:49.733Z,13.43
2019-02-22T07:37:18.984Z,13.49
2019-02-22T07:39:48.487Z,13.52
2019-02-22T07:42:18.529Z,13.55
2019-02-22T07:44:47.851Z,13.56
2019-02-22T07:47:17.430Z,13.57
2019-02-22T07:49:46.898Z,13.57
2019-02-22T07:52:16.133Z,13.62
2019-02-22T07:54:45.850Z,13.66
2019-02-22T07:57:15.175Z,13.69
2019-02-22T07:59:44.437Z,13.76
2019-02-22T08:02:13.980Z,13.77
2019-02-22T08:04:43.280Z,13.79
2019-02-22T08:07:12.821Z,13.86
2019-02-22T08:09:42.374Z,13.91
2019-02-22T08:12:11.770Z,13.90
2019-02-22T08:14:40.990Z,13.98
2019-02-22T08:17:10.523Z,14.02
2019-02-22T08:19:39.807Z,14.04
2019-02-22T08:22:09.075Z,14.04
2019-02-22T08:24:39.537Z,14.06
2019-02-22T08:27:08.950Z,14.07
2019-02-22T08:29:38.497Z,14.13
2019-02-22T08:32:08.083Z,14.19
2019-02-22T08:34:37.393Z,14.25
2019-02-22T08:37:06.739Z,14.31
2019-02-22T08:39:36.308Z,14.36
2019-02-22T08:42:08.365Z,14.38
2019-02-22T08:44:37.724Z,14.40
2019-02-22T08:47:06.848Z,14.46
2019-02-22T08:49:36.168Z,14.49
2019-02-22T08:52:08.515Z,14.55
2019-02-22T08:54:46.680Z,14.59
2019-02-22T08:57:09.192Z,14.63
2019-02-22T08:59:38.546Z,14.68
2019-02-22T09:02:08.185Z,14.73
2019-02-22T09:04:37.489Z,14.76
2019-02-22T09:07:06.780Z,14.84
2019-02-22T09:09:36.307Z,14.89
2019-02-22T09:12:08.461Z,14.93
2019-02-22T09:14:37.714Z,14.95
2019-02-22T09:17:07.349Z,15.00
2019-02-22T09:19:36.762Z,15.03
2019-02-22T09:22:06.271Z,15.05
2019-02-22T09:24:35.891Z,15.08
2019-02-22T09:27:06.043Z,15.15
2019-02-22T09:29:35.291Z,15.18
2019-02-22T09:32:07.033Z,15.23
2019-02-22T09:34:36.301Z,15.26
2019-02-22T09:37:05.547Z,15.32
2019-02-22T09:39:35.153Z,15.43
2019-02-22T09:42:05.460Z,15.48
2019-02-22T09:44:34.728Z,15.47
2019-02-22T09:47:04.545Z,15.50
2019-02-22T09:49:33.977Z,15.59
2019-02-22T09:52:04.320Z,15.66
2019-02-22T09:54:33.583Z,15.74
2019-02-22T09:57:02.997Z,15.81
2019-02-22T09:59:32.816Z,15.89
2019-02-22T10:02:05.359Z,15.93
2019-02-22T10:04:34.710Z,15.99
2019-02-22T10:07:04.206Z,16.04
2019-02-22T10:09:33.533Z,16.12
2019-02-22T10:12:03.907Z,16.34
2019-02-22T10:14:33.183Z,16.58
2019-02-22T10:17:02.719Z,16.86
2019-02-22T10:19:32.360Z,17.14
2019-02-22T10:22:03.349Z,17.31
2019-02-22T10:24:32.533Z,17.40
2019-02-22T10:27:02.142Z,17.39
2019-02-22T10:29:32.432Z,17.50
2019-02-22T10:32:03.230Z,17.63
2019-02-22T10:34:32.757Z,17.68
2019-02-22T10:37:02.111Z,17.73
2019-02-22T10:39:31.523Z,17.78
2019-02-22T10:42:01.158Z,18.24
2019-02-22T10:44:30.467Z,18.59
2019-02-22T10:46:59.737Z,18.93
2019-02-22T10:49:29.001Z,19.47
2019-02-22T10:51:58.257Z,19.97
2019-02-22T10:54:27.563Z,19.98
2019-02-22T10:56:57.273Z,19.75
2019-02-22T10:59:26.710Z,19.50
2019-02-22T11:01:56.424Z,19.19
2019-02-22T11:04:25.908Z,18.93
2019-02-22T11:06:55.215Z,18.69
2019-02-22T11:09:24.460Z,18.46
2019-02-22T11:11:54.105Z,18.19
2019-02-22T11:14:29.271Z,18.03
2019-02-22T11:16:54.781Z,17.81
2019-02-22T11:19:24.473Z,17.58
2019-02-22T11:21:53.896Z,17.35
2019-02-22T11:24:23.486Z,17.12
2019-02-22T11:26:55.513Z,16.92
2019-02-22T11:29:24.829Z,16.65
2019-02-22T11:31:54.954Z,16.59
2019-02-22T11:34:24.491Z,16.48
2019-02-22T11:36:53.805Z,16.41
2019-02-22T11:39:23.071Z,16.36
2019-02-22T11:41:52.640Z,16.33
2019-02-22T11:44:22.144Z,16.28
2019-02-22T11:46:51.454Z,16.31
2019-02-22T11:49:21.180Z,16.28
2019-02-22T11:51:50.745Z,16.24
2019-02-22T11:54:20.244Z,16.16
2019-02-22T11:56:50.056Z,16.07
2019-02-22T11:59:19.310Z,16.03
2019-02-22T12:01:49.271Z,15.97
2019-02-22T12:04:18.839Z,15.99
2019-02-22T12:06:48.130Z,16.03
2019-02-22T12:09:17.645Z,15.99
2019-02-22T12:11:47.342Z,15.97
2019-02-22T12:14:16.673Z,16.02
2019-02-22T12:16:46.012Z,16.12
2019-02-22T12:19:19.214Z,16.24
2019-02-22T12:21:49.020Z,16.41
2019-02-22T12:24:18.571Z,16.68
2019-02-22T12:26:48.614Z,17.09
2019-02-22T12:29:17.889Z,17.52
2019-02-22T12:31:47.171Z,18.79
2019-02-22T12:34:17.675Z,20.21
2019-02-22T12:36:47.281Z,21.44
2019-02-22T12:39:16.581Z,22.24
2019-02-22T12:41:46.144Z,22.74
2019-02-22T12:44:15.467Z,23.36
2019-02-22T12:46:44.843Z,23.97
2019-02-22T12:49:14.437Z,24.21
2019-02-22T12:51:43.899Z,23.60
2019-02-22T12:54:13.230Z,22.90
2019-02-22T12:56:56.665Z,22.16
2019-02-22T12:59:13.905Z,21.33
2019-02-22T13:01:45.028Z,20.45
2019-02-22T13:04:14.488Z,20.23
2019-02-22T13:06:43.732Z,19.81
2019-02-22T13:09:13.021Z,19.68
2019-02-22T13:11:44.965Z,19.48
2019-02-22T13:14:14.740Z,19.20
2019-02-22T13:16:44.130Z,18.88
2019-02-22T13:19:13.507Z,18.76
2019-02-22T13:21:43.125Z,18.59
2019-02-22T13:24:12.422Z,18.43
2019-02-22T13:26:41.898Z,18.31
2019-02-22T13:29:11.489Z,18.06
2019-02-22T13:31:41.038Z,18.10
2019-02-22T13:34:10.451Z,18.05
2019-02-22T13:36:41.092Z,17.90
2019-02-22T13:39:10.378Z,17.77
2019-02-22T13:41:41.234Z,17.57
2019-02-22T13:44:10.885Z,17.40
2019-02-22T13:46:40.189Z,17.35
2019-02-22T13:49:09.476Z,17.27
2019-02-22T13:51:38.707Z,17.19
2019-02-22T13:54:08.189Z,17.14
2019-02-22T13:56:37.876Z,17.12
2019-02-22T13:59:07.254Z,17.18
2019-02-22T14:01:36.967Z,17.26
2019-02-22T14:04:06.930Z,17.28
2019-02-22T14:06:36.468Z,17.27
2019-02-22T14:09:06.601Z,17.31
2019-02-22T14:11:36.337Z,17.34
2019-02-22T14:14:08.642Z,17.33
2019-02-22T14:16:38.075Z,17.31
2019-02-22T14:19:07.667Z,17.19
2019-02-22T14:21:37.327Z,17.22
2019-02-22T14:24:06.888Z,17.20
2019-02-22T14:26:36.525Z,17.14
2019-02-22T14:29:07.234Z,17.10
2019-02-22T14:31:37.220Z,17.02
2019-02-22T14:34:07.452Z,17.01
2019-02-22T14:36:36.922Z,16.97
2019-02-22T14:39:08.420Z,16.93
2019-02-22T14:41:38.093Z,16.85
2019-02-22T14:44:07.877Z,16.79
2019-02-22T14:46:37.378Z,16.73
2019-02-22T14:49:07.130Z,16.68
2019-02-22T14:51:37.109Z,16.66
2019-02-22T14:54:06.897Z,16.63
2019-02-22T14:56:36.430Z,16.53
2019-02-22T14:59:06.711Z,16.55
2019-02-22T15:01:36.155Z,16.48
2019-02-22T15:04:08.929Z,16.48
2019-02-22T15:06:40.377Z,16.46
2019-02-22T15:09:10.166Z,16.49
2019-02-22T15:11:39.963Z,16.48
2019-02-22T15:14:10.369Z,16.49
2019-02-22T15:16:57.142Z,16.48
2019-02-22T15:19:28.710Z,16.50
2019-02-22T15:22:01.098Z,16.49
2019-02-22T15:24:32.978Z,16.51
2019-02-22T15:27:02.475Z,16.49
2019-02-22T15:29:32.935Z,16.46
2019-02-22T15:32:05.084Z,16.43
2019-02-22T15:34:35.180Z,16.33
2019-02-22T15:37:05.717Z,16.31
2019-02-22T15:39:36.709Z,16.28
2019-02-22T15:42:08.639Z,16.22
2019-02-22T15:44:38.815Z,16.16
2019-02-22T15:47:11.681Z,16.08
2019-02-22T15:49:40.893Z,16.04
2019-02-22T15:52:11.098Z,15.95
2019-02-22T15:54:40.953Z,15.90
2019-02-22T15:57:11.077Z,15.84
2019-02-22T15:59:40.787Z,15.83
2019-02-22T16:02:10.531Z,15.76
2019-02-22T16:04:59.327Z,15.70
2019-02-22T16:07:29.484Z,15.66
2019-02-22T16:09:59.622Z,15.57
2019-02-22T16:12:29.228Z,15.52
2019-02-22T16:14:59.116Z,15.48
2019-02-22T16:17:31.001Z,15.48
2019-02-22T16:20:00.747Z,15.43
2019-02-22T16:22:31.256Z,15.37
2019-02-22T16:25:03.122Z,15.29
2019-02-22T16:27:34.335Z,15.22
2019-02-22T16:30:10.935Z,15.15
2019-02-22T16:32:40.946Z,15.09
2019-02-22T16:35:10.813Z,15.04
2019-02-22T16:37:40.996Z,14.96
2019-02-22T16:40:11.402Z,14.90
2019-02-22T16:42:41.293Z,14.87
2019-02-22T16:45:11.141Z,14.84
2019-02-22T16:47:41.480Z,14.75
2019-02-22T16:50:11.882Z,14.76
2019-02-22T16:52:41.576Z,14.71
2019-02-22T16:55:13.425Z,14.65
2019-02-22T16:57:43.209Z,14.62
2019-02-22T17:00:14.421Z,14.57
2019-02-22T17:02:47.469Z,14.50
2019-02-22T17:05:21.094Z,14.45
2019-02-22T17:07:50.968Z,14.39
2019-02-22T17:10:20.916Z,14.33
2019-02-22T17:12:50.618Z,14.27
2019-02-22T17:15:20.659Z,14.28
2019-02-22T17:17:50.307Z,14.22
2019-02-22T17:20:21.195Z,14.12
2019-02-22T17:22:51.174Z,14.07
2019-02-22T17:25:20.871Z,14.04
2019-02-22T17:27:50.625Z,14.00
2019-02-22T17:30:20.653Z,13.97
2019-02-22T17:32:50.297Z,13.93
2019-02-22T17:35:20.076Z,13.88
2019-02-22T17:37:50.037Z,13.82
2019-02-22T17:40:19.788Z,13.78
2019-02-22T17:42:49.523Z,13.75
2019-02-22T17:45:20.706Z,13.74
2019-02-22T17:47:50.706Z,13.71
2019-02-22T17:50:20.504Z,13.66
2019-02-22T17:52:50.689Z,13.61
2019-02-22T17:55:20.357Z,13.57
2019-02-22T17:57:50.591Z,13.49
2019-02-22T18:00:22.873Z,13.45
2019-02-22T18:02:52.925Z,13.43
2019-02-22T18:05:22.698Z,13.41
2019-02-22T18:07:52.716Z,13.39
2019-02-22T18:10:24.947Z,13.35
2019-02-22T18:12:55.659Z,13.28
2019-02-22T18:15:25.634Z,13.23
2019-02-22T18:17:55.691Z,13.20
2019-02-22T18:20:25.464Z,13.21
2019-02-22T18:22:55.502Z,13.16
2019-02-22T18:25:25.440Z,13.12
2019-02-22T18:27:55.423Z,13.12
2019-02-22T18:30:27.293Z,13.11
2019-02-22T18:32:57.283Z,13.11
2019-02-22T18:35:27.238Z,13.07
2019-02-22T18:37:57.329Z,13.00
2019-02-22T18:40:28.962Z,12.96
2019-02-22T18:42:58.730Z,12.95
2019-02-22T18:45:29.192Z,12.92
2019-02-22T18:48:00.261Z,12.91
2019-02-22T18:50:30.020Z,12.88
2019-02-22T18:53:00.069Z,12.81
2019-02-22T18:55:29.725Z,12.78
2019-02-22T18:57:59.657Z,12.77
2019-02-22T19:00:29.323Z,12.74
2019-02-22T19:02:59.224Z,12.71
2019-02-22T19:05:29.357Z,12.67
2019-02-22T19:08:03.059Z,12.65
2019-02-22T19:10:33.089Z,12.63
2019-02-22T19:13:08.528Z,12.62
2019-02-22T19:15:38.745Z,12.60
2019-02-22T19:18:08.749Z,12.58
2019-02-22T19:20:38.524Z,12.55
2019-02-22T19:23:08.253Z,12.55
2019-02-22T19:25:38.389Z,12.54
2019-02-22T19:28:09.522Z,12.52
2019-02-22T19:30:39.569Z,12.50
2019-02-22T19:33:09.569Z,12.46
2019-02-22T19:35:39.371Z,12.38
2019-02-22T19:38:09.118Z,12.37
2019-02-22T19:40:40.721Z,12.36
2019-02-22T19:43:12.441Z,12.31
2019-02-22T19:45:42.831Z,12.28
2019-02-22T19:48:12.722Z,12.31
2019-02-22T19:50:49.512Z,12.27
2019-02-22T19:53:15.356Z,12.22
2019-02-22T19:55:47.073Z,12.18
2019-02-22T19:58:16.922Z,12.15
2019-02-22T20:00:46.849Z,12.12
2019-02-22T20:03:26.361Z,12.10
2019-02-22T20:05:58.460Z,12.12
2019-02-22T20:08:28.432Z,12.11
2019-02-22T20:11:01.784Z,12.10
2019-02-22T20:13:31.629Z,12.08
2019-02-22T20:16:04.631Z,12.03
2019-02-22T20:18:35.636Z,12.02
2019-02-22T20:21:07.258Z,12.01
2019-02-22T20:23:36.956Z,12.01
2019-02-22T20:26:11.012Z,11.97
2019-02-22T20:28:41.948Z,11.91
2019-02-22T20:31:20.394Z,11.92
2019-02-22T20:33:49.911Z,11.89
2019-02-22T20:36:28.124Z,11.81
2019-02-22T20:38:51.790Z,11.82
2019-02-22T20:41:21.888Z,11.80
2019-02-22T20:43:52.012Z,11.78
2019-02-22T20:46:25.303Z,11.71
2019-02-22T20:49:00.871Z,11.70
2019-02-22T20:51:31.929Z,11.67
2019-02-22T20:54:03.812Z,11.62
2019-02-22T20:56:33.860Z,11.61
2019-02-22T20:59:06.757Z,11.58
2019-02-22T21:01:37.001Z,11.53
2019-02-22T21:04:10.041Z,11.51
2019-02-22T21:06:40.350Z,11.49
2019-02-22T21:09:13.648Z,11.48
2019-02-22T21:11:43.479Z,11.43
2019-02-22T21:14:13.586Z,11.42
2019-02-22T21:16:43.447Z,11.41
2019-02-22T21:19:13.130Z,11.39
2019-02-22T21:21:46.168Z,11.36
2019-02-22T21:24:16.400Z,11.33
2019-02-22T21:26:46.006Z,11.30
2019-02-22T21:29:15.820Z,11.30
2019-02-22T21:31:46.209Z,11.27
2019-02-22T21:34:16.191Z,11.23
2019-02-22T21:36:47.692Z,11.19
2019-02-22T21:39:17.351Z,11.14
2019-02-22T21:41:49.213Z,11.11
2019-02-22T21:44:20.526Z,11.09
2019-02-22T21:46:50.249Z,11.06
2019-02-22T21:49:20.979Z,11.07
2019-02-22T21:51:52.016Z,11.08
2019-02-22T21:54:22.187Z,11.04
2019-02-22T21:56:52.132Z,11.04
2019-02-22T21:59:21.943Z,11.02
2019-02-22T22:01:52.630Z,11.02
2019-02-22T22:04:22.570Z,11.01
2019-02-22T22:06:52.328Z,10.97
2019-02-22T22:09:24.089Z,10.96
2019-02-22T22:11:56.754Z,10.93
2019-02-22T22:14:26.928Z,10.93
2019-02-22T22:16:57.688Z,10.92
2019-02-22T22:19:29.744Z,10.91
2019-02-22T22:22:03.307Z,10.89
2019-02-22T22:24:35.503Z,10.86
2019-02-22T22:27:05.714Z,10.83
2019-02-22T22:29:35.949Z,10.82
2019-02-22T22:32:09.485Z,10.80
2019-02-22T22:34:39.775Z,10.77
2019-02-22T22:37:09.099Z,10.73
2019-02-22T22:39:38.506Z,10.68
2019-02-22T22:42:07.825Z,10.62
2019-02-22T22:44:37.422Z,10.61
2019-02-22T22:47:06.659Z,10.58
2019-02-22T22:49:36.074Z,10.57
2019-02-22T22:52:07.812Z,10.55
2019-02-22T22:54:37.149Z,10.53
2019-02-22T22:57:06.504Z,10.51
2019-02-22T22:59:37.208Z,10.45
2019-02-22T23:02:06.830Z,10.41
2019-02-22T23:04:36.488Z,10.42
2019-02-22T23:07:05.723Z,10.41
2019-02-22T23:09:37.408Z,10.40
2019-02-22T23:12:07.386Z,10.35
2019-02-22T23:14:37.805Z,10.33
2019-02-22T23:17:07.075Z,10.29
2019-02-22T23:19:36.820Z,10.32
2019-02-22T23:22:06.329Z,10.33
2019-02-22T23:24:37.370Z,10.33
2019-02-22T23:27:08.341Z,10.35
2019-02-22T23:29:37.734Z,10.38
2019-02-22T23:32:07.089Z,10.32
2019-02-22T23:34:37.809Z,10.35
2019-02-22T23:37:07.423Z,10.38
2019-02-22T23:39:36.820Z,10.40
2019-02-22T23:42:06.859Z,10.39
2019-02-22T23:44:36.096Z,10.41
2019-02-22T23:47:05.485Z,10.41
2019-02-22T23:49:35.370Z,10.40
2019-02-22T23:52:07.038Z,10.41
2019-02-22T23:54:36.554Z,10.38
2019-02-22T23:57:06.231Z,10.41
2019-02-22T23:59:35.490Z,10.42
